Time;durP1;ratioP1;P1;durP2;ratioP2;P2;SDS_P1;SDS_P2;PMS_P1;PMS_P2;Temp;Humidity;BMP_temperature;BMP_pressure;BME280_temperature;BME280_humidity;BME280_pressure;Samples;Min_cycle;Max_cycle;Signal;HPM_P1;HPM_P2
2022/09/18 00:01:17;;;;;;;5.90;5.30;;;;;;;27.95;32.68;99346.56;1882127;76;28186;-69
2022/09/18 00:04:09;;;;;;;5.58;4.97;;;;;;;27.95;32.70;99337.45;1901518;74;28137;-70
2022/09/18 00:06:57;;;;;;;5.57;4.97;;;;;;;27.94;32.71;99335.77;1881855;76;28160;-69
2022/09/18 00:09:46;;;;;;;6.47;5.22;;;;;;;27.94;32.73;99335.77;1890435;74;28102;-69
2022/09/18 00:12:34;;;;;;;5.37;4.87;;;;;;;27.90;32.81;99341.03;1890384;74;28765;-71
2022/09/18 00:15:22;;;;;;;5.75;5.17;;;;;;;27.92;32.78;99338.82;1876140;76;28176;-84
2022/09/18 00:18:15;;;;;;;8.00;4.97;;;;;;;27.90;32.81;99336.89;1892994;74;28013;-87
2022/09/18 00:21:05;;;;;;;6.17;4.90;;;;;;;27.91;32.81;99339.10;1903659;74;28237;-83
2022/09/18 00:23:56;;;;;;;5.40;4.85;;;;;;;27.90;32.83;99338.81;1904069;74;28154;-84
2022/09/18 00:26:47;;;;;;;5.03;4.40;;;;;;;27.88;32.88;99343.78;1900808;74;28141;-86
2022/09/18 00:29:36;;;;;;;7.05;4.90;;;;;;;27.88;32.90;99341.02;1881925;75;28147;-85
2022/09/18 00:32:25;;;;;;;5.93;4.40;;;;;;;27.87;32.96;99344.87;1889512;74;28215;-83
2022/09/18 00:35:15;;;;;;;5.78;4.95;;;;;;;27.87;32.94;99343.48;1890837;74;28160;-83
2022/09/18 00:38:03;;;;;;;4.90;4.40;;;;;;;27.87;32.97;99348.47;1899340;74;28232;-83
2022/09/18 00:40:52;;;;;;;5.00;4.50;;;;;;;27.87;32.96;99343.48;1882076;76;28225;-83
2022/09/18 00:43:43;;;;;;;4.65;4.25;;;;;;;27.84;33.01;99346.24;1887397;74;28164;-82
2022/09/18 00:46:34;;;;;;;5.22;4.45;;;;;;;27.85;33.04;99340.17;1914699;74;28186;-82
2022/09/18 00:49:26;;;;;;;4.80;4.40;;;;;;;27.86;33.04;99347.38;1897745;74;28193;-83
2022/09/18 00:52:17;;;;;;;6.08;4.50;;;;;;;27.82;33.04;99349.83;1877283;76;28292;-83
2022/09/18 00:55:08;;;;;;;4.75;4.25;;;;;;;27.81;33.10;99351.49;1897438;75;28092;-81
2022/09/18 00:57:59;;;;;;;4.20;3.83;;;;;;;27.82;33.13;99351.78;1901710;75;28151;-82
2022/09/18 01:00:47;;;;;;;5.17;4.47;;;;;;;27.79;33.20;99348.18;1884536;75;28110;-82
2022/09/18 01:03:36;;;;;;;4.25;3.87;;;;;;;27.79;33.17;99349.56;1878073;75;28230;-82
2022/09/18 01:06:27;;;;;;;4.50;4.10;;;;;;;27.76;33.25;99351.48;1893951;75;28222;-82
2022/09/18 01:09:23;;;;;;;4.30;3.90;;;;;;;27.78;33.26;99349.27;1888959;75;28211;-82
2022/09/18 01:12:20;;;;;;;4.25;3.80;;;;;;;27.74;33.27;99356.45;1831620;76;28614;-82
2022/09/18 01:15:21;;;;;;;4.15;3.75;;;;;;;27.75;33.30;99358.12;1873056;76;28648;-82
2022/09/18 01:18:17;;;;;;;4.05;3.65;;;;;;;27.71;33.36;99360.58;1832505;76;28141;-82
2022/09/18 01:21:17;;;;;;;4.15;3.75;;;;;;;27.72;33.36;99364.17;1876279;75;28219;-81
2022/09/18 01:24:18;;;;;;;4.00;3.60;;;;;;;27.72;33.39;99370.53;1874274;75;28349;-85
2022/09/18 01:27:13;;;;;;;4.33;3.92;;;;;;;27.70;33.41;99365.00;1862473;75;28348;-84
2022/09/18 01:30:07;;;;;;;4.58;4.10;;;;;;;27.69;33.44;99365.54;1883149;75;28168;-85
2022/09/18 01:33:01;;;;;;;3.83;3.50;;;;;;;27.67;33.48;99373.27;1842853;76;28016;-85
2022/09/18 01:35:53;;;;;;;4.77;3.80;;;;;;;27.67;33.53;99373.81;1878513;75;28142;-83
2022/09/18 01:38:49;;;;;;;3.50;3.20;;;;;;;27.67;33.52;99371.89;1872874;75;28356;-83
2022/09/18 01:41:40;;;;;;;4.10;3.70;;;;;;;27.69;33.50;99377.96;1862583;75;28301;-84
2022/09/18 01:44:34;;;;;;;4.22;3.70;;;;;;;27.70;33.48;99377.42;1883657;75;28392;-84
2022/09/18 01:47:27;;;;;;;3.70;3.30;;;;;;;27.69;33.50;99380.72;1872177;76;28156;-84
2022/09/18 01:50:17;;;;;;;3.85;3.45;;;;;;;27.73;33.44;99374.93;1875500;75;28203;-82
2022/09/18 01:53:16;;;;;;;3.40;3.10;;;;;;;27.75;33.43;99374.67;1874482;75;28157;-83
2022/09/18 01:56:17;;;;;;;3.72;3.40;;;;;;;27.71;33.46;99377.13;1869605;75;28168;-81
2022/09/18 01:59:09;;;;;;;4.10;3.47;;;;;;;27.67;33.54;99373.81;1885487;75;28180;-82
2022/09/18 02:02:07;;;;;;;3.60;3.30;;;;;;;27.68;33.49;99376.28;1890225;75;28237;-81
2022/09/18 02:04:57;;;;;;;3.58;3.27;;;;;;;27.66;33.55;99381.80;1878973;75;32029;-82
2022/09/18 02:07:58;;;;;;;3.83;3.10;;;;;;;27.64;33.57;99380.70;1879581;75;28289;-82
2022/09/18 02:10:55;;;;;;;3.42;3.20;;;;;;;27.65;33.58;99380.98;1901615;75;28239;-83
2022/09/18 02:14:07;;;;;;;3.83;3.37;;;;;;;27.64;33.55;99383.45;1884719;75;28735;-82
2022/09/18 02:17:03;;;;;;;3.30;3.10;;;;;;;27.61;33.62;99388.70;1842796;76;28209;-84
2022/09/18 02:19:55;;;;;;;3.25;2.98;;;;;;;27.59;33.67;99386.20;1869044;76;28217;-83
2022/09/18 02:22:48;;;;;;;3.10;2.80;;;;;;;27.63;33.59;99390.09;1867977;76;38575;-82
2022/09/18 02:25:48;;;;;;;3.37;3.03;;;;;;;27.61;33.63;99386.75;1865020;76;28261;-84
2022/09/18 02:28:38;;;;;;;3.22;3.00;;;;;;;27.62;33.62;99384.28;1835116;77;28291;-83
2022/09/18 02:31:27;;;;;;;3.05;2.85;;;;;;;27.62;33.56;99387.59;1813110;78;28300;-83
2022/09/18 02:34:19;;;;;;;3.15;2.95;;;;;;;27.63;33.62;99385.12;1841671;77;28328;-84
2022/09/18 02:37:28;;;;;;;2.92;2.72;;;;;;;27.63;33.58;99378.22;1839606;77;28401;-71
2022/09/18 02:40:30;;;;;;;2.80;2.55;;;;;;;27.62;33.59;99375.17;1804546;78;28277;-83
2022/09/18 02:43:29;;;;;;;3.10;2.90;;;;;;;27.61;33.60;99377.09;1823678;77;28363;-71
2022/09/18 02:46:37;;;;;;;3.70;2.95;;;;;;;27.61;33.62;99381.80;1834494;77;28281;-69
2022/09/18 02:49:31;;;;;;;3.00;2.80;;;;;;;27.62;33.61;99381.52;1823818;78;28227;-70
2022/09/18 02:52:31;;;;;;;3.33;2.60;;;;;;;27.63;33.64;99369.94;1834251;77;28199;-69
2022/09/18 02:55:32;;;;;;;2.77;2.58;;;;;;;27.62;33.65;99378.77;1850795;76;28274;-70
2022/09/18 02:58:24;;;;;;;2.90;2.33;;;;;;;27.58;33.68;99369.37;1853238;76;28231;-69
2022/09/18 03:01:17;;;;;;;2.90;2.70;;;;;;;27.59;33.67;99363.28;1881961;74;28312;-69
2022/09/18 03:04:09;;;;;;;2.80;2.60;;;;;;;27.58;33.72;99360.26;1895899;74;28251;-69
2022/09/18 03:06:59;;;;;;;3.10;2.50;;;;;;;27.59;33.69;99359.98;1896226;74;28153;-68
2022/09/18 03:09:48;;;;;;;3.00;2.80;;;;;;;27.64;33.62;99367.44;1892408;74;28430;-69
2022/09/18 03:12:38;;;;;;;2.90;2.70;;;;;;;27.64;33.64;99367.44;1890071;74;28116;-70
2022/09/18 03:15:26;;;;;;;2.55;2.35;;;;;;;27.58;33.70;99360.26;1900735;74;28200;-69
2022/09/18 03:18:15;;;;;;;2.60;2.40;;;;;;;27.59;33.71;99366.04;1901214;74;28330;-69
2022/09/18 03:21:06;;;;;;;2.70;2.50;;;;;;;27.64;33.66;99364.68;1862440;74;28245;-69
2022/09/18 03:23:54;;;;;;;2.67;2.47;;;;;;;27.62;33.63;99361.37;1865792;75;28224;-70
2022/09/18 03:26:44;;;;;;;2.60;2.40;;;;;;;27.59;33.69;99368.25;1878124;76;28293;-69
2022/09/18 03:29:34;;;;;;;2.55;2.35;;;;;;;27.60;33.68;99369.09;1881651;76;28715;-70
2022/09/18 03:32:27;;;;;;;3.00;2.80;;;;;;;27.62;33.63;99372.41;1888328;74;28165;-69
2022/09/18 03:35:15;;;;;;;2.67;2.47;;;;;;;27.61;33.64;99372.95;1913390;74;28120;-70
2022/09/18 03:38:04;;;;;;;2.50;2.30;;;;;;;27.60;33.68;99378.20;1899139;74;28134;-69
2022/09/18 03:40:52;;;;;;;2.62;2.42;;;;;;;27.61;33.67;99373.52;1866505;74;28163;-69
2022/09/18 03:43:42;;;;;;;2.30;2.20;;;;;;;27.62;33.67;99377.38;1892702;74;28147;-70
2022/09/18 03:46:32;;;;;;;2.25;2.15;;;;;;;27.62;33.63;99386.20;1913963;74;28614;-69
2022/09/18 03:49:22;;;;;;;2.20;2.10;;;;;;;27.63;33.66;99385.12;1881672;76;28194;-70
2022/09/18 03:52:13;;;;;;;2.00;1.90;;;;;;;27.60;33.67;99383.73;1882175;76;28165;-70
2022/09/18 03:55:04;;;;;;;2.17;2.08;;;;;;;27.58;33.70;99386.47;1883513;74;28144;-69
2022/09/18 03:58:00;;;;;;;2.90;2.30;;;;;;;27.61;33.64;99385.95;1890697;74;28203;-70
2022/09/18 04:00:57;;;;;;;2.20;2.10;;;;;;;27.61;33.68;99401.13;1852498;76;28570;-69
2022/09/18 04:03:46;;;;;;;2.40;2.22;;;;;;;27.59;33.69;99393.09;1878873;76;28206;-70
2022/09/18 04:06:45;;;;;;;1.90;1.80;;;;;;;27.61;33.70;99405.26;1910943;74;28125;-70
2022/09/18 04:09:35;;;;;;;2.15;1.95;;;;;;;27.57;33.71;99397.22;1889175;74;28157;-70
2022/09/18 04:12:25;;;;;;;2.00;1.90;;;;;;;27.56;33.68;99395.03;1889374;74;28190;-70
2022/09/18 04:15:16;;;;;;;4.37;2.00;;;;;;;27.59;33.69;99393.63;1894281;74;28202;-70
2022/09/18 04:18:05;;;;;;;2.22;2.02;;;;;;;27.58;33.68;99406.63;1899605;74;28025;-70
2022/09/18 04:20:53;;;;;;;3.02;1.85;;;;;;;27.57;33.71;99409.63;1873760;74;28120;-70
2022/09/18 04:23:42;;;;;;;1.80;1.70;;;;;;;27.64;33.63;99396.42;1890201;74;28224;-70
2022/09/18 04:26:35;;;;;;;1.95;1.80;;;;;;;27.60;33.67;99403.59;1878682;76;28169;-73
2022/09/18 04:29:24;;;;;;;2.17;1.92;;;;;;;27.60;33.67;99403.59;1851890;74;28148;-78
2022/09/18 04:32:13;;;;;;;2.00;1.90;;;;;;;27.60;33.38;99403.05;1884057;74;28151;-78
2022/09/18 04:35:01;;;;;;;1.90;1.80;;;;;;;27.60;33.38;99403.05;1899878;74;28151;-79
2022/09/18 04:37:50;;;;;;;1.92;1.82;;;;;;;27.58;33.70;99403.03;1893757;74;28128;-79
2022/09/18 04:40:38;;;;;;;2.75;2.10;;;;;;;27.61;33.68;99406.64;1888877;74;28155;-78
2022/09/18 04:43:28;;;;;;;1.85;1.75;;;;;;;27.59;33.68;99411.58;1889348;74;28664;-77
2022/09/18 04:46:17;;;;;;;2.22;2.00;;;;;;;27.56;33.69;99408.83;1873603;75;28215;-77
2022/09/18 04:49:05;;;;;;;1.90;1.80;;;;;;;27.59;33.69;99414.33;1878569;76;28124;-77
2022/09/18 04:51:54;;;;;;;2.00;1.90;;;;;;;27.57;33.68;99417.91;1885312;74;28208;-77
2022/09/18 04:54:43;;;;;;;2.15;1.95;;;;;;;27.57;33.70;99416.53;1888899;74;28213;-77
2022/09/18 04:57:36;;;;;;;1.90;1.80;;;;;;;27.56;33.70;99422.63;1884903;74;28265;-77
2022/09/18 05:00:24;;;;;;;1.90;1.80;;;;;;;27.59;33.69;99425.37;1869373;76;28199;-77
2022/09/18 05:03:13;;;;;;;1.70;1.60;;;;;;;27.55;33.71;99425.63;1875985;75;28193;-77
2022/09/18 05:06:01;;;;;;;1.70;1.60;;;;;;;27.56;33.73;99421.79;1879860;75;28173;-78
2022/09/18 05:08:52;;;;;;;1.75;1.65;;;;;;;27.57;33.75;99431.71;1884604;75;28192;-76
2022/09/18 05:11:42;;;;;;;1.57;1.47;;;;;;;27.57;33.76;99431.71;1869398;76;38465;-78
2022/09/18 05:14:30;;;;;;;1.87;1.77;;;;;;;27.55;33.71;99431.99;1875126;75;28189;-78
2022/09/18 05:17:20;;;;;;;1.60;1.50;;;;;;;27.55;33.75;99437.52;1880097;75;28206;-78
2022/09/18 05:20:15;;;;;;;1.70;1.60;;;;;;;27.55;33.73;99439.43;1884252;75;28233;-78
2022/09/18 05:23:08;;;;;;;1.72;1.62;;;;;;;27.52;33.76;99446.31;1881089;75;28670;-78
2022/09/18 05:25:55;;;;;;;1.50;1.50;;;;;;;27.52;33.80;99446.86;1873175;75;28236;-78
2022/09/18 05:28:44;;;;;;;1.50;1.50;;;;;;;27.55;33.75;99447.71;1875063;74;28180;-77
2022/09/18 05:31:32;;;;;;;1.50;1.40;;;;;;;27.54;33.74;99448.25;1867536;75;28131;-76
2022/09/18 05:34:21;;;;;;;1.60;1.50;;;;;;;27.53;33.75;99447.16;1869392;76;28208;-76
2022/09/18 05:37:11;;;;;;;1.53;1.50;;;;;;;27.52;33.78;99453.22;1869190;76;28153;-76
2022/09/18 05:40:00;;;;;;;1.60;1.50;;;;;;;27.53;33.63;99454.05;1884292;75;28167;-78
2022/09/18 05:42:49;;;;;;;1.70;1.60;;;;;;;27.53;33.63;99454.05;1886175;75;28181;-77
2022/09/18 05:45:38;;;;;;;1.62;1.55;;;;;;;27.48;33.85;99459.53;1879490;75;28199;-77
2022/09/18 05:48:34;;;;;;;1.50;1.40;;;;;;;27.54;33.78;99462.05;1873195;75;28119;-76
2022/09/18 05:52:34;;;;;;;1.60;1.50;;;;;;;27.57;33.73;99468.42;1943404;72;27974;-77
2022/09/18 05:55:27;;;;;;;1.47;1.40;;;;;;;27.52;33.72;99468.93;1902106;75;28047;-77
2022/09/18 05:58:19;;;;;;;1.40;1.30;;;;;;;27.54;33.71;99473.09;1902178;75;28145;-77
2022/09/18 06:01:09;;;;;;;1.40;1.40;;;;;;;27.52;33.72;99466.17;1895930;75;28142;-76
2022/09/18 06:04:10;;;;;;;1.30;1.30;;;;;;;27.55;33.69;99475.30;1805993;75;28383;-77
2022/09/18 06:07:05;;;;;;;1.40;1.30;;;;;;;27.54;33.69;99470.33;1869479;76;28252;-78
2022/09/18 06:09:53;;;;;;;1.30;1.30;;;;;;;27.54;33.68;99477.80;1869480;76;28231;-77
2022/09/18 06:12:43;;;;;;;1.50;1.40;;;;;;;27.52;33.74;99488.25;1872575;75;28188;-78
2022/09/18 06:15:34;;;;;;;1.40;1.30;;;;;;;27.55;33.68;99489.94;1882631;73;28210;-75
2022/09/18 06:18:22;;;;;;;1.40;1.30;;;;;;;27.55;33.70;99489.10;1869606;76;28151;-84
2022/09/18 06:21:15;;;;;;;1.47;1.37;;;;;;;27.54;33.74;99486.08;1859809;75;28188;-83
2022/09/18 06:24:04;;;;;;;1.22;1.22;;;;;;;27.56;33.68;99487.48;1880559;75;28191;-84
2022/09/18 06:26:56;;;;;;;1.67;1.57;;;;;;;27.54;33.69;99490.22;1881755;75;28203;-85
2022/09/18 06:29:45;;;;;;;1.40;1.30;;;;;;;27.57;33.67;99490.50;1869524;76;31144;-84
2022/09/18 06:32:35;;;;;;;1.40;1.30;;;;;;;27.55;33.68;99499.59;1878456;75;28211;-84
2022/09/18 06:35:24;;;;;;;1.30;1.30;;;;;;;27.55;33.70;99500.98;1898415;75;28133;-81
2022/09/18 06:38:12;;;;;;;1.57;1.47;;;;;;;27.54;33.69;99497.92;1857256;75;28214;-81
2022/09/18 06:41:05;;;;;;;1.40;1.30;;;;;;;27.55;33.69;99496.84;1884258;75;28161;-78
2022/09/18 06:44:00;;;;;;;1.20;1.20;;;;;;;27.53;33.76;99499.58;1892257;75;28278;-79
2022/09/18 06:46:55;;;;;;;1.20;1.20;;;;;;;27.53;33.73;99496.82;1897789;75;28134;-75
2022/09/18 06:49:45;;;;;;;1.30;1.20;;;;;;;27.54;33.72;99498.50;1880112;75;28186;-76
2022/09/18 06:52:34;;;;;;;1.27;1.27;;;;;;;27.50;33.75;99494.59;1878453;75;28233;-75
2022/09/18 06:55:25;;;;;;;1.22;1.22;;;;;;;27.51;33.76;99505.92;1840288;75;28159;-73
2022/09/18 06:58:15;;;;;;;1.27;1.17;;;;;;;27.53;33.75;99506.48;1858886;75;28691;-78
2022/09/18 07:01:03;;;;;;;1.20;0.93;;;;;;;27.56;33.76;99504.03;1861470;75;28234;-76
2022/09/18 07:03:53;;;;;;;1.50;1.17;;;;;;;27.68;34.45;99496.92;1884581;75;28661;-74
2022/09/18 07:06:47;;;;;;;1.20;1.20;;;;;;;27.94;35.51;99498.67;1879312;75;28713;-77
2022/09/18 07:09:35;;;;;;;1.30;1.30;;;;;;;28.15;36.47;99494.09;1867731;75;28127;-76
2022/09/18 07:12:27;;;;;;;1.05;1.00;;;;;;;28.29;36.98;99493.86;1868679;75;28291;-74
2022/09/18 07:15:17;;;;;;;1.30;1.20;;;;;;;28.27;36.30;99490.00;1892787;74;28192;-72
2022/09/18 07:18:06;;;;;;;1.05;1.05;;;;;;;28.37;36.22;99490.03;1880010;74;28107;-74
2022/09/18 07:20:57;;;;;;;1.85;1.30;;;;;;;28.50;36.23;99491.42;1867572;75;28234;-75
2022/09/18 07:23:47;;;;;;;1.35;1.25;;;;;;;28.53;36.80;99497.80;1879638;74;28197;-76
2022/09/18 07:26:37;;;;;;;1.80;1.20;;;;;;;28.51;36.34;99495.86;1857181;77;28202;-75
2022/09/18 07:29:27;;;;;;;1.10;1.10;;;;;;;28.48;35.64;99490.32;1882966;75;28092;-77
2022/09/18 07:32:19;;;;;;;1.12;0.95;;;;;;;28.45;35.13;99485.33;1867317;75;28169;-75
2022/09/18 07:35:07;;;;;;;1.30;1.20;;;;;;;28.41;34.55;99489.75;1865608;75;28266;-77
2022/09/18 07:38:05;;;;;;;5.30;4.60;;;;;;;28.33;33.95;99484.78;1862851;75;28208;-78
2022/09/18 07:41:06;;;;;;;6.93;4.90;;;;;;;28.32;33.63;99486.41;1892224;74;28131;-76
2022/09/18 07:43:55;;;;;;;5.80;4.30;;;;;;;28.31;33.51;99487.53;1882639;75;28136;-75
2022/09/18 07:46:44;;;;;;;4.10;3.50;;;;;;;28.28;33.52;99491.67;1898111;75;28165;-80
2022/09/18 07:49:32;;;;;;;3.67;3.20;;;;;;;28.24;33.54;99487.77;1851377;77;28626;-77
2022/09/18 07:52:22;;;;;;;3.27;2.97;;;;;;;28.26;33.45;99491.12;1867138;74;28227;-80
2022/09/18 07:55:12;;;;;;;2.85;2.65;;;;;;;28.23;33.54;99490.81;1888519;75;28218;-78
2022/09/18 07:58:03;;;;;;;2.80;2.60;;;;;;;28.22;33.56;99485.83;1869400;75;28448;-79
2022/09/18 08:01:10;;;;;;;3.87;3.00;;;;;;;28.25;33.75;99485.30;1908186;74;28224;-79
2022/09/18 08:04:05;;;;;;;3.52;2.65;;;;;;;28.26;34.01;99488.36;1890718;75;28128;-79
2022/09/18 08:07:02;;;;;;;2.90;2.57;;;;;;;28.25;34.25;99494.12;1884161;75;28645;-80
2022/09/18 08:09:55;;;;;;;3.67;2.50;;;;;;;28.21;34.34;99495.23;1860231;75;28275;-80
2022/09/18 08:13:02;;;;;;;3.37;2.60;;;;;;;28.21;34.57;99498.00;1883181;75;28215;-81
2022/09/18 08:15:52;;;;;;;3.63;2.93;;;;;;;28.20;34.76;99497.70;1871637;75;28281;-76
2022/09/18 08:18:49;;;;;;;2.90;2.57;;;;;;;28.22;34.92;99493.28;1899169;75;28270;-80
2022/09/18 08:21:54;;;;;;;3.30;2.62;;;;;;;28.18;35.07;99497.16;1800579;77;28255;-82
2022/09/18 08:24:43;;;;;;;2.55;2.35;;;;;;;28.20;35.22;99492.19;1890435;75;28433;-81
2022/09/18 08:27:33;;;;;;;2.85;2.55;;;;;;;28.25;35.46;99494.97;1883731;75;28201;-78
2022/09/18 08:30:21;;;;;;;4.07;2.33;;;;;;;28.32;35.80;99491.39;1884131;74;28218;-80
2022/09/18 08:33:13;;;;;;;2.60;2.40;;;;;;;28.35;36.16;99495.00;1877330;75;28304;-81
2022/09/18 08:36:02;;;;;;;3.02;2.60;;;;;;;28.30;36.36;99485.31;1888215;75;28267;-72
2022/09/18 08:38:55;;;;;;;3.00;2.47;;;;;;;28.34;36.53;99493.33;1875857;75;28334;-71
2022/09/18 08:42:18;;;;;;;2.52;2.33;;;;;;;28.32;36.67;99499.69;1886738;74;28160;-71
2022/09/18 08:45:19;;;;;;;2.77;2.50;;;;;;;28.30;36.83;99501.89;1885985;75;28100;-71
2022/09/18 08:48:13;;;;;;;3.08;2.50;;;;;;;28.27;37.05;99509.88;1894462;75;28176;-71
2022/09/18 08:51:05;;;;;;;2.60;2.40;;;;;;;28.24;37.25;99501.58;1880542;74;28026;-71
2022/09/18 08:54:00;;;;;;;3.08;2.42;;;;;;;28.26;37.19;99508.23;1898181;74;28184;-71
2022/09/18 08:56:59;;;;;;;3.37;3.05;;;;;;;28.18;37.17;99510.97;1859627;75;28117;-71
2022/09/18 09:00:02;;;;;;;5.50;3.70;;;;;;;28.18;36.99;99515.66;1890910;75;38532;-72
2022/09/18 09:02:55;;;;;;;4.97;4.08;;;;;;;28.17;36.55;99512.05;1892915;73;28172;-71
2022/09/18 09:05:46;;;;;;;4.45;3.95;;;;;;;28.14;36.14;99508.47;1879080;75;28146;-72
2022/09/18 09:09:09;;;;;;;4.33;3.45;;;;;;;28.07;35.73;99506.52;1876441;74;28068;-72
2022/09/18 09:12:05;;;;;;;4.63;4.23;;;;;;;28.05;35.56;99504.00;1856972;75;28213;-71
2022/09/18 09:15:03;;;;;;;5.62;4.20;;;;;;;28.00;35.34;99503.17;1875376;75;28278;-71
2022/09/18 09:18:06;;;;;;;4.83;3.93;;;;;;;27.96;35.27;99506.14;1866175;74;28230;-73
2022/09/18 09:20:58;;;;;;;4.27;3.87;;;;;;;27.97;35.13;99506.43;1894843;74;28216;-70
2022/09/18 09:23:57;;;;;;;4.47;4.03;;;;;;;27.94;34.99;99493.99;1887586;74;29096;-70
2022/09/18 09:26:51;;;;;;;4.17;3.77;;;;;;;27.94;34.91;99501.44;1868622;76;28152;-70
2022/09/18 09:29:46;;;;;;;4.45;4.05;;;;;;;27.93;34.86;99495.66;1850920;75;28102;-71
2022/09/18 09:33:04;;;;;;;4.50;4.10;;;;;;;27.91;34.80;99490.38;1868605;76;28364;-71
2022/09/18 09:36:03;;;;;;;5.12;3.92;;;;;;;27.93;34.66;99497.87;1873620;74;28200;-71
2022/09/18 09:38:59;;;;;;;4.45;4.03;;;;;;;27.89;34.63;99499.48;1868899;74;28196;-71
2022/09/18 09:42:04;;;;;;;4.28;3.90;;;;;;;27.87;34.59;99496.17;1854669;77;28084;-71
2022/09/18 09:45:01;;;;;;;5.17;4.67;;;;;;;27.89;34.62;99491.78;1882190;75;28217;-71
2022/09/18 09:48:02;;;;;;;5.28;4.50;;;;;;;27.84;34.57;99490.37;1915809;73;28047;-69
2022/09/18 09:51:00;;;;;;;5.87;4.55;;;;;;;27.87;34.49;99494.79;1853880;74;28131;-73
2022/09/18 09:53:52;;;;;;;5.00;4.50;;;;;;;27.86;34.43;99490.93;1881079;75;28161;-76
2022/09/18 09:56:45;;;;;;;5.47;4.33;;;;;;;27.88;34.41;99492.86;1874214;75;28180;-72
2022/09/18 09:59:43;;;;;;;4.92;4.25;;;;;;;27.88;34.36;99481.28;1868744;76;28143;-70
2022/09/18 10:03:06;;;;;;;4.78;4.35;;;;;;;27.87;34.38;99479.61;1869912;75;33093;-71
2022/09/18 10:06:14;;;;;;;4.97;4.20;;;;;;;27.86;34.39;99475.20;1870723;74;28376;-72
2022/09/18 10:09:11;;;;;;;4.50;4.10;;;;;;;27.84;34.35;99473.81;1868441;74;28144;-72
2022/09/18 10:12:13;;;;;;;4.00;3.60;;;;;;;27.84;34.32;99467.71;1895866;74;28106;-71
2022/09/18 10:15:05;;;;;;;4.90;4.40;;;;;;;27.79;34.42;99469.64;1856716;77;28178;-72
2022/09/18 10:17:58;;;;;;;4.83;4.10;;;;;;;27.83;34.51;99466.61;1886340;74;28120;-71
2022/09/18 10:20:51;;;;;;;4.78;4.30;;;;;;;27.89;34.83;99464.98;1872883;74;28059;-71
2022/09/18 10:23:43;;;;;;;5.03;4.33;;;;;;;27.91;34.90;99468.30;1909834;74;28079;-76
2022/09/18 10:26:48;;;;;;;5.40;4.30;;;;;;;27.92;34.95;99456.16;1880957;74;28159;-72
2022/09/18 10:29:37;;;;;;;5.50;4.17;;;;;;;27.95;34.96;99456.17;1878960;74;28064;-70
2022/09/18 10:32:37;;;;;;;4.67;4.20;;;;;;;27.91;35.02;99450.92;1885840;74;28141;-73
2022/09/18 10:35:44;;;;;;;5.30;4.80;;;;;;;27.92;34.86;99436.84;1857161;76;35189;-73
2022/09/18 10:38:36;;;;;;;5.40;4.50;;;;;;;27.92;34.86;99436.84;1891218;75;28234;-72
2022/09/18 10:41:39;;;;;;;6.37;4.50;;;;;;;27.94;34.60;99437.39;1861181;74;28214;-71
2022/09/18 10:44:39;;;;;;;5.53;4.70;;;;;;;27.95;34.56;99440.44;1868922;76;28219;-71
2022/09/18 10:47:31;;;;;;;5.03;4.50;;;;;;;27.89;34.48;99431.84;1856972;77;28258;-71
2022/09/18 10:50:22;;;;;;;5.25;4.40;;;;;;;27.91;34.48;99431.59;1866762;75;28228;-71
2022/09/18 10:53:16;;;;;;;4.65;4.25;;;;;;;27.93;34.43;99428.84;1869166;75;28138;-72
2022/09/18 10:56:22;;;;;;;4.57;4.07;;;;;;;27.91;34.37;99422.73;1882115;74;28166;-72
2022/09/18 10:59:30;;;;;;;4.35;4.05;;;;;;;27.95;34.31;99425.25;1896431;74;28160;-72
2022/09/18 11:02:21;;;;;;;4.28;3.87;;;;;;;27.91;34.40;99426.07;1905846;74;28202;-71
2022/09/18 11:05:18;;;;;;;9.50;4.10;;;;;;;27.90;34.37;99427.16;1881939;74;28793;-70
2022/09/18 11:08:14;;;;;;;4.40;4.00;;;;;;;27.90;34.38;99424.40;1909703;74;28243;-71
2022/09/18 11:11:07;;;;;;;4.85;4.37;;;;;;;27.91;34.51;99426.07;1884734;74;28169;-72
2022/09/18 11:14:00;;;;;;;4.28;3.90;;;;;;;27.92;34.63;99422.19;1908368;74;28114;-70
2022/09/18 11:16:52;;;;;;;4.30;3.90;;;;;;;27.95;34.59;99422.49;1910846;74;28286;-70
2022/09/18 11:19:41;;;;;;;5.75;4.22;;;;;;;27.95;34.58;99422.49;1878293;76;28218;-70
2022/09/18 11:22:43;;;;;;;4.95;4.35;;;;;;;27.95;34.56;99416.14;1891009;74;28003;-70
2022/09/18 11:25:35;;;;;;;4.33;3.85;;;;;;;27.93;34.48;99415.04;1895693;74;28240;-71
2022/09/18 11:28:32;;;;;;;4.72;4.10;;;;;;;27.94;34.50;99417.23;1902162;74;28112;-71
2022/09/18 11:31:22;;;;;;;4.55;4.15;;;;;;;27.92;34.50;99407.00;1878266;74;28258;-71
2022/09/18 11:34:16;;;;;;;5.22;4.17;;;;;;;27.95;34.48;99409.23;1886554;74;28109;-70
2022/09/18 11:37:14;;;;;;;4.75;4.22;;;;;;;27.94;34.43;99403.42;1906982;74;28106;-69
2022/09/18 11:40:07;;;;;;;3.90;3.60;;;;;;;27.92;34.45;99404.25;1859248;74;28089;-71
2022/09/18 11:42:58;;;;;;;5.25;4.08;;;;;;;27.95;34.65;99402.33;1877961;74;28267;-71
2022/09/18 11:46:15;;;;;;;4.60;4.20;;;;;;;28.05;35.20;99403.20;1904031;74;28259;-73
2022/09/18 11:49:07;;;;;;;4.65;4.20;;;;;;;28.20;36.20;99400.19;1891152;74;28058;-73
2022/09/18 11:52:00;;;;;;;5.60;4.23;;;;;;;28.20;36.09;99394.67;1897997;74;28119;-71
2022/09/18 11:55:11;;;;;;;4.12;3.72;;;;;;;28.29;37.08;99395.78;1879019;74;28399;-72
2022/09/18 11:58:11;;;;;;;3.65;2.98;;;;;;;28.30;38.02;99403.81;1916413;73;28576;-71
2022/09/18 12:01:24;;;;;;;2.67;2.10;;;;;;;28.26;37.01;99404.09;1883076;74;28170;-73
2022/09/18 12:04:18;;;;;;;2.02;1.82;;;;;;;28.22;35.57;99397.98;1870947;75;28154;-74
2022/09/18 12:07:11;;;;;;;1.70;1.60;;;;;;;28.17;34.16;99395.23;1876449;75;28311;-72
2022/09/18 12:10:23;;;;;;;2.25;1.50;;;;;;;28.18;33.59;99395.50;1870662;75;28329;-72
2022/09/18 12:13:48;;;;;;;1.60;1.50;;;;;;;28.15;32.95;99387.20;1814517;77;28179;-73
2022/09/18 12:16:43;;;;;;;1.30;1.20;;;;;;;28.06;32.05;99384.70;1876198;75;28160;-72
2022/09/18 12:19:48;;;;;;;1.63;1.20;;;;;;;28.01;31.14;99383.31;1892809;75;28182;-72
2022/09/18 12:22:48;;;;;;;0.80;0.80;;;;;;;28.01;30.18;99386.08;1895778;74;28169;-71
2022/09/18 12:25:49;;;;;;;0.70;0.70;;;;;;;27.97;29.50;99376.11;1874462;75;28076;-73
2022/09/18 12:29:07;;;;;;;1.00;0.90;;;;;;;27.98;28.99;99371.42;1828718;76;28208;-72
2022/09/18 12:32:17;;;;;;;0.85;0.85;;;;;;;27.93;28.26;99363.96;1892564;74;28144;-71
2022/09/18 12:35:26;;;;;;;0.88;0.80;;;;;;;27.90;27.71;99367.26;1876709;75;28283;-73
2022/09/18 12:38:52;;;;;;;2.20;2.00;;;;;;;27.84;26.49;99362.00;1868712;76;28152;-73
2022/09/18 12:41:45;;;;;;;2.70;2.12;;;;;;;27.81;26.14;99353.71;1888860;74;28116;-72
2022/09/18 12:45:08;;;;;;;2.40;2.20;;;;;;;27.75;26.59;99344.31;1866524;76;28719;-71
2022/09/18 12:48:11;;;;;;;1.80;1.70;;;;;;;27.73;26.30;99349.25;1871578;75;28863;-71
2022/09/18 12:51:08;;;;;;;1.40;1.30;;;;;;;27.71;26.52;99343.17;1885707;74;28234;-72
2022/09/18 12:54:09;;;;;;;2.33;1.40;;;;;;;27.75;26.43;99334.66;1866314;76;28268;-73
2022/09/18 12:57:00;;;;;;;1.15;1.12;;;;;;;27.70;26.35;99345.10;1877464;75;28196;-75
2022/09/18 13:00:10;;;;;;;1.30;1.07;;;;;;;27.69;26.26;99344.84;1884768;74;28163;-76
2022/09/18 13:03:24;;;;;;;0.90;0.90;;;;;;;27.72;26.21;99333.81;1873901;75;28204;-72
2022/09/18 13:06:16;;;;;;;0.75;0.75;;;;;;;27.69;26.13;99332.97;1857997;75;28195;-72
2022/09/18 13:09:07;;;;;;;0.70;0.70;;;;;;;27.64;25.99;99335.70;1852647;76;28208;-73
2022/09/18 13:12:02;;;;;;;2.47;0.90;;;;;;;27.63;25.92;99328.00;1855712;75;29165;-71
2022/09/18 13:14:54;;;;;;;0.50;0.50;;;;;;;27.65;25.82;99323.58;1879046;75;28088;-72
2022/09/18 13:17:45;;;;;;;2.33;0.80;;;;;;;27.61;25.85;99306.72;1865493;75;28260;-72
2022/09/18 13:20:40;;;;;;;1.27;0.60;;;;;;;27.61;25.70;99312.23;1862576;74;28248;-74
2022/09/18 13:23:31;;;;;;;0.98;0.72;;;;;;;27.56;25.85;99314.17;1876321;74;28244;-75
2022/09/18 13:26:23;;;;;;;0.70;0.50;;;;;;;27.55;25.80;99311.12;1866111;75;28559;-74
2022/09/18 13:29:46;;;;;;;0.50;0.50;;;;;;;27.52;25.86;99308.89;1888119;75;28184;-75
2022/09/18 13:32:38;;;;;;;0.40;0.40;;;;;;;27.54;25.86;99297.06;1897462;74;28006;-74
2022/09/18 13:35:36;;;;;;;1.60;0.50;;;;;;;27.45;25.92;99314.67;1877068;74;28766;-73
2022/09/18 13:38:27;;;;;;;1.20;0.60;;;;;;;27.47;25.59;99292.36;1868191;75;28245;-73
2022/09/18 13:41:15;;;;;;;0.47;0.47;;;;;;;27.46;25.75;99297.58;1859297;75;28205;-76
2022/09/18 13:44:04;;;;;;;0.40;0.40;;;;;;;27.43;25.86;99276.87;1878027;74;28044;-73